Airports

 

 

Airport Name Latest METAR Visual Conditions
Atlantic City Int. (ACY) KACY 061854Z 15010KT 10SM OVC035 14/11 A3025 RMK AO2 RAE1757B34E51 SLP243 P0000 T01390111 VFR
Baltimore International Airport (BWI) KBWI 061854Z 00000KT 1 3/4SM BR BKN004 OVC010 09/08 A3020 RMK AO2 DZE21 SLP227 P0001 T00890078 LIFR
Washington National Airport (DCA) KDCA 061931Z 21005KT 6SM BR OVC008 08/07 A3022 RMK AO2 DZE19 P0000 T00830072 IFR
Dulles International Airport (IAD) KIAD 061852Z 19007KT 6SM BR OVC006 09/07 A3019 RMK AO2 SLP225 T00890072 IFR
Norfolk International Airport (ORF) KORF 061928Z 15008KT 10SM BKN024 BKN029 19/16 A3020 RMK AO2 T01890156 MVFR
Raleigh International Airport (RDU) KRDU 061851Z 00000KT 3SM BR BKN005 OVC015 13/12 A3021 RMK AO2 SFC VIS 5 DZE19 SLP231 P0000 T01330122 IFR
Richmond International Airport (RIC) KRIC 061854Z 24003KT 8SM SCT034 OVC049 11/08 A3021 RMK AO2 SLP237 T01060078 VFR
Roanoke Regional Airport (ROA) KROA 061917Z 09003KT 2 1/2SM -RA BR OVC005 07/06 A3021 RMK AO2 SFC VIS 4 P0000 T00670056 IFR